createdAt,value
2023-04-01T00:01:05.113Z,-2.70
2023-04-01T00:03:34.581Z,-2.60
2023-04-01T00:06:02.241Z,-2.70
2023-04-01T00:08:30.446Z,-2.70
2023-04-01T00:10:58.286Z,-2.80
2023-04-01T00:13:27.504Z,-2.80
2023-04-01T00:15:57.585Z,-2.80
2023-04-01T00:18:25.768Z,-2.80
2023-04-01T00:20:53.734Z,-2.90
2023-04-01T00:23:36.538Z,-2.90
2023-04-01T00:26:05.016Z,-2.90
2023-04-01T00:28:34.037Z,-2.90
2023-04-01T00:31:06.444Z,-2.80
2023-04-01T00:33:34.283Z,-2.90
2023-04-01T00:36:17.235Z,-2.80
2023-04-01T00:38:45.604Z,-2.80
2023-04-01T00:41:15.856Z,-2.80
2023-04-01T00:43:50.578Z,-2.90
2023-04-01T00:46:18.067Z,-2.90
2023-04-01T00:49:03.884Z,-2.90
2023-04-01T00:51:31.796Z,-2.90
2023-04-01T00:54:02.896Z,-2.90
2023-04-01T00:56:34.143Z,-2.90
2023-04-01T00:59:34.938Z,-3.00
2023-04-01T01:02:08.424Z,-3.00
2023-04-01T01:04:36.821Z,-3.00
2023-04-01T01:07:22.620Z,-3.00
2023-04-01T01:10:22.076Z,-3.20
2023-04-01T01:13:01.212Z,-3.20
2023-04-01T01:15:47.418Z,-3.20
2023-04-01T01:18:23.841Z,-3.20
2023-04-01T01:21:12.852Z,-3.20
2023-04-01T01:24:24.150Z,-3.30
2023-04-01T01:27:59.748Z,-3.30
2023-04-01T01:31:05.917Z,-3.30
2023-04-01T01:35:11.992Z,-3.30
2023-04-01T01:37:17.767Z,-3.40
2023-04-01T01:39:57.782Z,-3.30
2023-04-01T01:42:34.467Z,-3.30
2023-04-01T01:48:20.889Z,-3.40
2023-04-01T01:54:35.466Z,-3.20
2023-04-01T01:57:37.582Z,-3.20
2023-04-01T02:00:27.905Z,-3.20
2023-04-01T02:03:23.638Z,-3.30
2023-04-01T02:06:09.902Z,-3.30
2023-04-01T02:09:50.198Z,-3.20
2023-04-01T02:17:58.332Z,-3.30
2023-04-01T02:20:26.946Z,-3.30
2023-04-01T02:22:57.670Z,-3.20
2023-04-01T02:25:37.324Z,-3.20
2023-04-01T02:28:08.007Z,-3.20
2023-04-01T02:30:37.831Z,-3.20
2023-04-01T02:33:07.028Z,-3.20
2023-04-01T02:35:38.348Z,-3.20
2023-04-01T02:38:06.817Z,-3.20
2023-04-01T02:41:03.844Z,-3.20
2023-04-01T02:43:30.884Z,-3.20
2023-04-01T02:45:59.028Z,-3.20
2023-04-01T02:48:26.493Z,-3.20
2023-04-01T02:50:53.662Z,-3.30
2023-04-01T02:53:20.966Z,-3.20
2023-04-01T02:55:51.045Z,-3.30
2023-04-01T02:58:18.534Z,-3.30
2023-04-01T03:00:45.680Z,-3.30
2023-04-01T03:03:14.753Z,-3.30
2023-04-01T03:05:42.268Z,-3.30
2023-04-01T03:08:09.346Z,-3.30
2023-04-01T03:10:36.404Z,-3.20
2023-04-01T03:13:03.789Z,-3.20
2023-04-01T03:15:31.225Z,-3.20
2023-04-01T03:17:58.569Z,-3.30
2023-04-01T03:20:25.905Z,-3.20
2023-04-01T03:22:53.038Z,-3.10
2023-04-01T03:25:20.214Z,-3.10
2023-04-01T03:27:47.328Z,-3.20
2023-04-01T03:30:14.532Z,-3.30
2023-04-01T03:32:41.578Z,-3.20
2023-04-01T03:35:10.720Z,-3.20
2023-04-01T03:37:38.095Z,-3.20
2023-04-01T03:40:06.213Z,-3.20
2023-04-01T03:42:33.629Z,-3.20
2023-04-01T03:45:00.869Z,-3.10
2023-04-01T03:47:28.061Z,-3.20
2023-04-01T03:49:55.165Z,-3.20
2023-04-01T03:52:22.527Z,-3.20
2023-04-01T03:54:49.715Z,-3.20
2023-04-01T03:57:17.150Z,-3.20
2023-04-01T03:59:44.200Z,-3.20
2023-04-01T04:02:11.326Z,-3.20
2023-04-01T04:04:38.425Z,-3.10
2023-04-01T04:07:05.458Z,-3.20
2023-04-01T04:09:33.173Z,-3.20
2023-04-01T04:12:01.511Z,-3.20
2023-04-01T04:14:28.617Z,-3.20
2023-04-01T04:16:55.803Z,-3.20
2023-04-01T04:19:22.832Z,-3.20
2023-04-01T04:21:49.960Z,-3.20
2023-04-01T04:24:17.116Z,-3.20
2023-04-01T04:26:44.125Z,-3.30
2023-04-01T04:29:11.147Z,-3.30
2023-04-01T04:31:38.587Z,-3.30
2023-04-01T04:34:05.887Z,-3.20
2023-04-01T04:36:33.053Z,-3.30
2023-04-01T04:39:03.094Z,-3.30
2023-04-01T04:41:30.313Z,-3.30
2023-04-01T04:44:04.203Z,-3.20
2023-04-01T04:46:41.330Z,-3.10
2023-04-01T04:49:10.910Z,-3.20
2023-04-01T04:51:53.123Z,-3.10
2023-04-01T04:54:30.853Z,-3.10
2023-04-01T04:57:08.929Z,-3.10
2023-04-01T04:59:38.878Z,-3.10
2023-04-01T05:02:09.129Z,-3.10
2023-04-01T05:04:38.071Z,-3.00
2023-04-01T05:07:05.238Z,-2.90
2023-04-01T05:09:33.219Z,-2.90
2023-04-01T05:12:00.479Z,-2.80
2023-04-01T05:14:27.510Z,-2.80
2023-04-01T05:16:55.538Z,-2.70
2023-04-01T05:19:22.779Z,-2.70
2023-04-01T05:21:50.091Z,-2.70
2023-04-01T05:24:17.324Z,-2.60
2023-04-01T05:26:44.298Z,-2.60
2023-04-01T05:29:12.130Z,-2.50
2023-04-01T05:31:39.198Z,-2.50
2023-04-01T05:34:06.263Z,-2.40
2023-04-01T05:36:35.744Z,-2.30
2023-04-01T05:39:02.908Z,-2.30
2023-04-01T05:41:29.981Z,-2.20
2023-04-01T05:43:57.205Z,-2.20
2023-04-01T05:46:24.340Z,-2.10
2023-04-01T05:48:51.614Z,-2.00
2023-04-01T05:51:18.730Z,-2.00
2023-04-01T05:53:45.875Z,-2.00
2023-04-01T05:56:12.944Z,-1.90
2023-04-01T05:58:40.886Z,-1.80
2023-04-01T06:01:14.125Z,-1.80
2023-04-01T06:03:43.881Z,-1.70
2023-04-01T06:06:28.197Z,-1.60
2023-04-01T06:08:58.454Z,-0.90
2023-04-01T06:11:36.216Z,-0.30
2023-04-01T06:14:12.189Z,0.40
2023-04-01T06:17:15.423Z,0.40
2023-04-01T06:20:01.418Z,0.60
2023-04-01T06:22:37.586Z,1.20
2023-04-01T06:25:36.669Z,1.40
2023-04-01T06:28:03.725Z,1.20
2023-04-01T06:31:03.490Z,1.40
2023-04-01T06:33:36.274Z,2.00
2023-04-01T06:36:12.617Z,1.60
2023-04-01T06:38:57.821Z,1.60
2023-04-01T06:42:11.391Z,1.60
2023-04-01T06:44:55.153Z,1.20
2023-04-01T06:47:45.480Z,1.30
2023-04-01T06:50:52.148Z,1.70
2023-04-01T06:53:47.133Z,2.10
2023-04-01T06:56:20.565Z,2.00
2023-04-01T06:59:11.311Z,2.40
2023-04-01T07:01:50.135Z,2.60
2023-04-01T07:04:40.987Z,2.10
2023-04-01T07:07:50.484Z,2.10
2023-04-01T07:10:50.145Z,2.30
2023-04-01T07:13:30.738Z,1.80
2023-04-01T07:16:14.331Z,2.40
2023-04-01T07:18:49.631Z,2.60
2023-04-01T07:21:37.785Z,3.00
2023-04-01T07:24:16.997Z,2.60
2023-04-01T07:26:44.542Z,1.80
2023-04-01T07:29:14.709Z,2.00
2023-04-01T07:31:56.485Z,2.20
2023-04-01T07:34:29.792Z,2.70
2023-04-01T07:37:05.370Z,2.60
2023-04-01T07:39:41.333Z,2.10
2023-04-01T07:42:24.535Z,2.30
2023-04-01T07:45:03.789Z,2.30
2023-04-01T07:47:40.805Z,2.40
2023-04-01T07:50:33.314Z,2.90
2023-04-01T07:53:24.499Z,3.00
2023-04-01T07:56:16.925Z,2.70
2023-04-01T07:59:05.384Z,2.60
2023-04-01T08:01:50.619Z,3.10
2023-04-01T08:04:43.876Z,2.80
2023-04-01T08:07:14.105Z,2.90
2023-04-01T08:10:01.693Z,2.50
2023-04-01T08:12:51.138Z,2.00
2023-04-01T08:15:37.551Z,2.40
2023-04-01T08:18:13.653Z,3.10
2023-04-01T08:20:57.239Z,3.30
2023-04-01T08:23:32.132Z,3.10
2023-04-01T08:26:31.063Z,3.70
2023-04-01T08:29:04.199Z,3.20
2023-04-01T08:31:34.599Z,3.70
2023-04-01T08:34:06.027Z,3.90
2023-04-01T08:36:40.135Z,3.80
2023-04-01T08:39:16.882Z,3.60
2023-04-01T08:41:53.245Z,3.70
2023-04-01T08:44:54.962Z,3.80
2023-04-01T08:47:36.431Z,3.40
2023-04-01T08:50:24.749Z,3.40
2023-04-01T08:53:22.518Z,3.90
2023-04-01T08:55:57.269Z,3.50
2023-04-01T08:58:45.696Z,3.80
2023-04-01T09:01:24.849Z,3.70
2023-04-01T09:04:29.500Z,3.90
2023-04-01T09:07:27.546Z,3.80
2023-04-01T09:10:17.192Z,4.30
2023-04-01T09:12:46.891Z,4.60
2023-04-01T09:15:47.981Z,5.10
2023-04-01T09:18:24.453Z,5.00
2023-04-01T09:21:10.275Z,5.00
2023-04-01T09:23:49.913Z,4.50
2023-04-01T09:26:51.444Z,4.70
2023-04-01T09:29:38.867Z,4.60
2023-04-01T09:32:24.200Z,4.80
2023-04-01T09:34:58.664Z,5.00
2023-04-01T09:37:48.173Z,4.90
2023-04-01T09:40:19.789Z,4.70
2023-04-01T09:43:28.630Z,4.80
2023-04-01T09:46:15.150Z,4.60
2023-04-01T09:49:21.613Z,4.50
2023-04-01T09:52:08.908Z,5.20
2023-04-01T09:55:00.758Z,4.70
2023-04-01T09:57:56.676Z,4.70
2023-04-01T10:00:52.084Z,4.70
2023-04-01T10:04:11.375Z,4.70
2023-04-01T10:07:00.067Z,4.50
2023-04-01T10:09:49.471Z,4.90
2023-04-01T10:12:41.163Z,4.80
2023-04-01T10:15:31.561Z,5.10
2023-04-01T10:18:13.017Z,4.90
2023-04-01T10:21:18.816Z,4.80
2023-04-01T10:24:25.915Z,4.60
2023-04-01T10:27:13.932Z,4.70
2023-04-01T10:29:54.557Z,4.70
2023-04-01T10:32:36.989Z,4.90
2023-04-01T10:35:22.514Z,5.10
2023-04-01T10:38:18.743Z,4.90
2023-04-01T10:41:16.740Z,5.10
2023-04-01T10:43:55.838Z,4.90
2023-04-01T10:46:38.445Z,4.90
2023-04-01T10:49:51.984Z,4.90
2023-04-01T10:52:37.820Z,5.00
2023-04-01T10:55:36.151Z,5.00
2023-04-01T10:58:28.002Z,5.10
2023-04-01T11:01:31.005Z,5.20
2023-04-01T11:04:49.145Z,5.20
2023-04-01T11:07:37.544Z,5.10
2023-04-01T11:10:07.860Z,5.20
2023-04-01T11:13:05.637Z,5.30
2023-04-01T11:16:00.628Z,5.40
2023-04-01T11:19:05.897Z,5.40
2023-04-01T11:21:57.817Z,5.60
2023-04-01T11:24:52.512Z,5.60
2023-04-01T11:27:39.942Z,5.60
2023-04-01T11:30:30.478Z,5.60
2023-04-01T11:33:06.354Z,5.60
2023-04-01T11:35:39.483Z,5.60
2023-04-01T11:38:30.289Z,5.70
2023-04-01T11:41:15.867Z,5.50
2023-04-01T11:43:42.933Z,5.40
2023-04-01T11:46:21.144Z,5.40
2023-04-01T11:49:07.479Z,5.50
2023-04-01T11:51:56.053Z,5.50
2023-04-01T11:54:38.590Z,5.50
2023-04-01T11:57:11.770Z,5.60
2023-04-01T11:59:51.154Z,5.50
2023-04-01T12:02:56.931Z,5.40
2023-04-01T12:05:40.215Z,5.50
2023-04-01T12:08:35.264Z,5.70
2023-04-01T12:11:17.415Z,5.50
2023-04-01T12:14:11.617Z,5.50
2023-04-01T12:16:54.275Z,5.40
2023-04-01T12:19:52.855Z,5.60
2023-04-01T12:22:36.580Z,5.90
2023-04-01T12:25:20.943Z,5.90
2023-04-01T12:28:09.731Z,6.00
2023-04-01T12:31:02.759Z,6.00
2023-04-01T12:33:57.450Z,6.00
2023-04-01T12:37:01.157Z,6.20
2023-04-01T12:39:52.990Z,6.60
2023-04-01T12:42:45.744Z,6.40
2023-04-01T12:45:37.477Z,6.30
2023-04-01T12:48:24.285Z,6.40
2023-04-01T12:50:54.328Z,6.70
2023-04-01T12:53:58.966Z,7.10
2023-04-01T12:56:40.240Z,6.20
2023-04-01T12:59:28.651Z,6.50
2023-04-01T13:01:55.897Z,6.90
2023-04-01T13:04:52.741Z,7.00
2023-04-01T13:07:53.952Z,6.40
2023-04-01T13:10:40.118Z,6.60
2023-04-01T13:13:16.344Z,6.30
2023-04-01T13:16:06.892Z,6.30
2023-04-01T13:18:52.549Z,6.40
2023-04-01T13:22:11.717Z,6.70
2023-04-01T13:24:59.836Z,6.20
2023-04-01T13:27:37.038Z,6.00
2023-04-01T13:30:10.193Z,5.90
2023-04-01T13:32:52.202Z,5.50
2023-04-01T13:35:28.040Z,5.70
2023-04-01T13:38:10.136Z,5.70
2023-04-01T13:41:02.304Z,5.50
2023-04-01T13:43:41.140Z,6.30
2023-04-01T13:46:42.367Z,5.60
2023-04-01T13:49:37.488Z,5.20
2023-04-01T13:52:38.719Z,5.20
2023-04-01T13:55:23.254Z,5.00
2023-04-01T13:58:18.245Z,4.90
2023-04-01T14:01:21.181Z,5.10
2023-04-01T14:03:51.474Z,4.90
2023-04-01T14:06:31.102Z,5.00
2023-04-01T14:09:29.411Z,4.90
2023-04-01T14:12:22.943Z,4.90
2023-04-01T14:15:22.768Z,5.00
2023-04-01T14:18:21.263Z,4.90
2023-04-01T14:21:10.260Z,4.80
2023-04-01T14:23:55.906Z,4.90
2023-04-01T14:26:29.250Z,5.00
2023-04-01T14:29:14.986Z,5.10
2023-04-01T14:32:09.180Z,5.00
2023-04-01T14:34:46.132Z,4.70
2023-04-01T14:37:28.222Z,4.80
2023-04-01T14:40:32.046Z,4.70
2023-04-01T14:43:30.446Z,4.70
2023-04-01T14:46:13.027Z,4.50
2023-04-01T14:48:44.181Z,4.50
2023-04-01T14:51:31.343Z,4.40
2023-04-01T14:54:04.286Z,4.40
2023-04-01T14:56:44.252Z,4.30
2023-04-01T14:59:36.902Z,4.30
2023-04-01T15:02:31.570Z,4.30
2023-04-01T15:05:26.394Z,4.20
2023-04-01T15:08:07.889Z,4.20
2023-04-01T15:10:51.146Z,4.30
2023-04-01T15:13:41.435Z,4.10
2023-04-01T15:16:36.434Z,4.10
2023-04-01T15:19:27.232Z,4.20
2023-04-01T15:22:19.046Z,4.20
2023-04-01T15:25:06.212Z,4.30
2023-04-01T15:27:46.405Z,4.30
2023-04-01T15:30:27.515Z,4.20
2023-04-01T15:33:09.234Z,4.10
2023-04-01T15:36:00.572Z,3.90
2023-04-01T15:38:56.053Z,3.90
2023-04-01T15:41:43.941Z,3.80
2023-04-01T15:44:44.890Z,3.80
2023-04-01T15:47:27.520Z,3.80
2023-04-01T15:50:05.622Z,3.70
2023-04-01T15:52:41.567Z,3.70
2023-04-01T15:55:39.076Z,3.60
2023-04-01T15:58:35.106Z,3.60
2023-04-01T16:01:29.849Z,3.60
2023-04-01T16:04:00.052Z,3.70
2023-04-01T16:07:04.996Z,3.70
2023-04-01T16:09:57.957Z,3.70
2023-04-01T16:13:12.021Z,3.60
2023-04-01T16:15:57.817Z,3.50
2023-04-01T16:19:12.182Z,3.40
2023-04-01T16:21:45.254Z,3.40
2023-04-01T16:24:18.422Z,3.40
2023-04-01T16:26:59.300Z,3.30
2023-04-01T16:29:41.287Z,3.30
2023-04-01T16:32:23.905Z,3.30
2023-04-01T16:34:59.815Z,3.30
2023-04-01T16:37:44.936Z,3.20
2023-04-01T16:40:22.212Z,3.20
2023-04-01T16:42:53.768Z,3.20
2023-04-01T16:45:32.362Z,3.10
2023-04-01T16:48:41.769Z,3.10
2023-04-01T16:51:16.223Z,3.00
2023-04-01T16:54:08.401Z,3.00
2023-04-01T16:56:49.040Z,3.00
2023-04-01T16:59:56.381Z,2.90
2023-04-01T17:02:51.286Z,2.80
2023-04-01T17:05:18.505Z,2.80
2023-04-01T17:08:18.039Z,2.70
2023-04-01T17:10:53.614Z,2.60
2023-04-01T17:13:46.304Z,2.60
2023-04-01T17:16:37.845Z,2.50
2023-04-01T17:19:13.912Z,2.50
2023-04-01T17:22:03.262Z,2.50
2023-04-01T17:24:53.405Z,2.40
2023-04-01T17:27:36.898Z,2.30
2023-04-01T17:30:16.330Z,2.30
2023-04-01T17:33:21.105Z,2.30
2023-04-01T17:36:03.318Z,2.10
2023-04-01T17:39:09.476Z,2.10
2023-04-01T17:41:42.930Z,2.10
2023-04-01T17:44:41.806Z,2.10
2023-04-01T17:47:38.133Z,2.10
2023-04-01T17:50:23.941Z,2.10
2023-04-01T17:53:07.999Z,2.00
2023-04-01T17:55:41.460Z,2.00
2023-04-01T17:58:33.225Z,1.90
2023-04-01T18:01:00.825Z,1.80
2023-04-01T18:03:37.301Z,1.80
2023-04-01T18:06:19.496Z,1.80
2023-04-01T18:08:58.976Z,1.80
2023-04-01T18:11:44.408Z,1.60
2023-04-01T18:14:53.424Z,1.50
2023-04-01T18:17:23.206Z,1.50
2023-04-01T18:20:12.280Z,1.30
2023-04-01T18:23:08.210Z,1.40
2023-04-01T18:25:42.115Z,1.30
2023-04-01T18:28:36.608Z,1.20
2023-04-01T18:31:03.655Z,1.10
2023-04-01T18:33:52.145Z,1.00
2023-04-01T18:36:37.520Z,1.00
2023-04-01T18:39:38.254Z,0.90
2023-04-01T18:42:21.692Z,0.90
2023-04-01T18:45:29.852Z,0.90
2023-04-01T18:47:59.711Z,0.80
2023-04-01T18:50:26.627Z,0.80
2023-04-01T18:52:59.859Z,0.80
2023-04-01T18:55:32.787Z,0.70
2023-04-01T18:58:14.887Z,0.70
2023-04-01T19:00:51.840Z,0.70
2023-04-01T19:03:30.031Z,0.70
2023-04-01T19:06:02.866Z,0.60
2023-04-01T19:08:37.586Z,0.60
2023-04-01T19:11:25.777Z,0.60
2023-04-01T19:14:31.007Z,0.50
2023-04-01T19:17:07.191Z,0.50
2023-04-01T19:20:00.022Z,0.60
2023-04-01T19:22:48.548Z,0.40
2023-04-01T19:25:37.875Z,0.40
2023-04-01T19:28:33.037Z,0.40
2023-04-01T19:31:12.079Z,0.30
2023-04-01T19:34:04.268Z,0.30
2023-04-01T19:36:42.396Z,0.40
2023-04-01T19:39:21.913Z,0.40
2023-04-01T19:42:07.239Z,0.30
2023-04-01T19:44:46.253Z,0.10
2023-04-01T19:47:48.468Z,0.20
2023-04-01T19:50:30.893Z,0.20
2023-04-01T19:53:02.916Z,0.10
2023-04-01T19:55:37.775Z,0.10
2023-04-01T19:58:15.732Z,0.20
2023-04-01T20:00:51.482Z,0.10
2023-04-01T20:03:27.664Z,0.10
2023-04-01T20:06:03.019Z,-0.10
2023-04-01T20:08:39.001Z,0.00
2023-04-01T20:11:12.237Z,0.00
2023-04-01T20:14:14.014Z,-0.20
2023-04-01T20:17:15.935Z,-0.20
2023-04-01T20:19:55.257Z,-0.20
2023-04-01T20:22:54.751Z,-0.20
2023-04-01T20:25:27.488Z,-0.20
2023-04-01T20:28:00.162Z,-0.20
2023-04-01T20:30:35.992Z,-0.20
2023-04-01T20:33:27.641Z,-0.30
2023-04-01T20:36:28.288Z,-0.30
2023-04-01T20:39:07.741Z,-0.40
2023-04-01T20:41:53.806Z,-0.40
2023-04-01T20:44:47.539Z,-0.40
2023-04-01T20:47:36.254Z,-0.40
2023-04-01T20:50:27.867Z,-0.50
2023-04-01T20:53:03.845Z,-0.50
2023-04-01T20:55:51.186Z,-0.50
2023-04-01T20:58:24.906Z,-0.50
2023-04-01T21:01:46.409Z,-0.40
2023-04-01T21:04:34.037Z,-0.50
2023-04-01T21:07:17.140Z,-0.60
2023-04-01T21:10:12.467Z,-0.60
2023-04-01T21:13:05.883Z,-0.60
2023-04-01T21:16:05.594Z,-0.60
2023-04-01T21:18:42.140Z,-0.70
2023-04-01T21:21:30.154Z,-0.70
2023-04-01T21:24:12.755Z,-0.70
2023-04-01T21:27:06.588Z,-0.60
2023-04-01T21:29:48.719Z,-0.70
2023-04-01T21:32:39.513Z,-0.60
2023-04-01T21:35:24.646Z,-0.70
2023-04-01T21:38:17.675Z,-0.60
2023-04-01T21:41:03.526Z,-0.60
2023-04-01T21:43:30.466Z,-0.70
2023-04-01T21:46:03.173Z,-0.60
2023-04-01T21:48:45.699Z,-0.70
2023-04-01T21:51:44.937Z,-0.70
2023-04-01T21:54:36.854Z,-0.70
2023-04-01T21:57:29.433Z,-0.70
2023-04-01T22:00:12.250Z,-0.70
2023-04-01T22:02:42.271Z,-0.80
2023-04-01T22:05:32.397Z,-0.80
2023-04-01T22:08:19.670Z,-0.80
2023-04-01T22:11:14.475Z,-0.80
2023-04-01T22:13:55.105Z,-0.70
2023-04-01T22:16:47.575Z,-0.80
2023-04-01T22:19:23.886Z,-0.70
2023-04-01T22:22:32.951Z,-0.70
2023-04-01T22:25:00.134Z,-0.80
2023-04-01T22:27:44.315Z,-0.80
2023-04-01T22:30:14.690Z,-0.70
2023-04-01T22:33:06.383Z,-0.70
2023-04-01T22:35:53.195Z,-0.70
2023-04-01T22:38:46.590Z,-0.70
2023-04-01T22:41:32.673Z,-0.70
2023-04-01T22:44:00.900Z,-0.70
2023-04-01T22:46:55.467Z,-0.70
2023-04-01T22:49:30.819Z,-0.70
2023-04-01T22:52:22.439Z,-0.70
2023-04-01T22:55:01.443Z,-0.80
2023-04-01T22:57:31.569Z,-0.80
2023-04-01T23:00:16.585Z,-0.90
2023-04-01T23:03:02.199Z,-0.90
2023-04-01T23:05:31.534Z,-0.90
2023-04-01T23:08:39.554Z,-1.00
2023-04-01T23:11:30.618Z,-0.90
2023-04-01T23:14:24.407Z,-1.00
2023-04-01T23:16:54.555Z,-1.00
2023-04-01T23:19:42.673Z,-0.90
2023-04-01T23:22:25.683Z,-0.90
2023-04-01T23:25:01.799Z,-0.90
2023-04-01T23:27:39.395Z,-1.00
2023-04-01T23:30:41.760Z,-0.90
2023-04-01T23:33:11.958Z,-1.00
2023-04-01T23:36:06.346Z,-1.00
2023-04-01T23:38:40.643Z,-1.00
2023-04-01T23:41:10.326Z,-1.00
2023-04-01T23:43:43.641Z,-1.00
2023-04-01T23:46:12.503Z,-1.00
2023-04-01T23:48:43.754Z,-1.00
2023-04-01T23:51:27.522Z,-1.00
2023-04-01T23:54:04.988Z,-1.00
2023-04-01T23:56:52.976Z,-1.00
2023-04-01T23:59:32.496Z,-1.00
